sensor_id;sensor_type;location;lat;lon;timestamp;temperature;humidity
4279;DHT22;2153;47.744;10.580;2022-11-24T00:01:21;4.20;99.90
4279;DHT22;2153;47.744;10.580;2022-11-24T00:03:53;4.20;99.90
4279;DHT22;2153;47.744;10.580;2022-11-24T00:06:22;4.30;99.90
4279;DHT22;2153;47.744;10.580;2022-11-24T00:08:49;4.30;99.90
4279;DHT22;2153;47.744;10.580;2022-11-24T00:11:17;4.40;99.90
4279;DHT22;2153;47.744;10.580;2022-11-24T00:13:44;4.50;99.90
4279;DHT22;2153;47.744;10.580;2022-11-24T00:16:13;4.40;99.90
4279;DHT22;2153;47.744;10.580;2022-11-24T00:18:41;4.50;99.90
4279;DHT22;2153;47.744;10.580;2022-11-24T00:21:09;4.50;99.90
4279;DHT22;2153;47.744;10.580;2022-11-24T00:23:37;4.50;99.90
4279;DHT22;2153;47.744;10.580;2022-11-24T00:26:06;4.60;99.90
4279;DHT22;2153;47.744;10.580;2022-11-24T00:28:34;4.60;99.90
4279;DHT22;2153;47.744;10.580;2022-11-24T00:31:03;4.60;99.90
4279;DHT22;2153;47.744;10.580;2022-11-24T00:33:30;4.60;99.90
4279;DHT22;2153;47.744;10.580;2022-11-24T00:35:59;4.60;99.90
4279;DHT22;2153;47.744;10.580;2022-11-24T00:38:25;4.60;99.90
4279;DHT22;2153;47.744;10.580;2022-11-24T00:40:54;4.70;99.90
4279;DHT22;2153;47.744;10.580;2022-11-24T00:43:20;4.60;99.90
4279;DHT22;2153;47.744;10.580;2022-11-24T00:45:47;4.60;99.90
4279;DHT22;2153;47.744;10.580;2022-11-24T00:48:14;4.60;99.90
4279;DHT22;2153;47.744;10.580;2022-11-24T00:50:41;4.60;99.90
4279;DHT22;2153;47.744;10.580;2022-11-24T00:53:09;4.60;99.90
4279;DHT22;2153;47.744;10.580;2022-11-24T00:55:36;4.70;99.90
4279;DHT22;2153;47.744;10.580;2022-11-24T00:58:04;4.60;99.90
4279;DHT22;2153;47.744;10.580;2022-11-24T01:00:30;4.70;99.90
4279;DHT22;2153;47.744;10.580;2022-11-24T01:02:57;4.70;99.90
4279;DHT22;2153;47.744;10.580;2022-11-24T01:05:24;4.60;99.90
4279;DHT22;2153;47.744;10.580;2022-11-24T01:07:51;4.60;99.90
4279;DHT22;2153;47.744;10.580;2022-11-24T01:10:18;4.60;99.90
4279;DHT22;2153;47.744;10.580;2022-11-24T01:12:44;4.70;99.90
4279;DHT22;2153;47.744;10.580;2022-11-24T01:15:13;4.70;99.90
4279;DHT22;2153;47.744;10.580;2022-11-24T01:17:40;4.70;99.90
4279;DHT22;2153;47.744;10.580;2022-11-24T01:20:08;4.70;99.90
4279;DHT22;2153;47.744;10.580;2022-11-24T01:22:35;4.60;99.90
4279;DHT22;2153;47.744;10.580;2022-11-24T01:25:03;4.60;99.90
4279;DHT22;2153;47.744;10.580;2022-11-24T01:27:30;4.50;99.90
4279;DHT22;2153;47.744;10.580;2022-11-24T01:29:57;4.50;99.90
4279;DHT22;2153;47.744;10.580;2022-11-24T01:32:25;4.50;99.90
4279;DHT22;2153;47.744;10.580;2022-11-24T01:34:52;4.50;99.90
4279;DHT22;2153;47.744;10.580;2022-11-24T01:37:19;4.50;99.90
4279;DHT22;2153;47.744;10.580;2022-11-24T01:39:45;4.50;99.90
4279;DHT22;2153;47.744;10.580;2022-11-24T01:42:12;4.50;99.90
4279;DHT22;2153;47.744;10.580;2022-11-24T01:44:40;4.50;99.90
4279;DHT22;2153;47.744;10.580;2022-11-24T01:47:29;4.50;99.90
4279;DHT22;2153;47.744;10.580;2022-11-24T01:49:59;4.50;99.90
4279;DHT22;2153;47.744;10.580;2022-11-24T01:52:29;4.50;99.90
4279;DHT22;2153;47.744;10.580;2022-11-24T01:55:02;4.50;99.90
4279;DHT22;2153;47.744;10.580;2022-11-24T01:57:34;4.40;99.90
4279;DHT22;2153;47.744;10.580;2022-11-24T02:00:04;4.50;99.90
4279;DHT22;2153;47.744;10.580;2022-11-24T02:02:33;4.50;99.90
4279;DHT22;2153;47.744;10.580;2022-11-24T02:05:02;4.50;99.90
4279;DHT22;2153;47.744;10.580;2022-11-24T02:07:31;4.50;99.90
4279;DHT22;2153;47.744;10.580;2022-11-24T02:10:02;4.50;99.90
4279;DHT22;2153;47.744;10.580;2022-11-24T02:12:30;4.50;99.90
4279;DHT22;2153;47.744;10.580;2022-11-24T02:14:58;4.60;99.90
4279;DHT22;2153;47.744;10.580;2022-11-24T02:17:25;4.60;99.90
4279;DHT22;2153;47.744;10.580;2022-11-24T02:19:56;4.60;99.90
4279;DHT22;2153;47.744;10.580;2022-11-24T02:22:30;4.70;99.90
4279;DHT22;2153;47.744;10.580;2022-11-24T02:25:01;4.60;99.90
4279;DHT22;2153;47.744;10.580;2022-11-24T02:27:31;4.60;99.90
4279;DHT22;2153;47.744;10.580;2022-11-24T02:29:58;4.60;99.90
4279;DHT22;2153;47.744;10.580;2022-11-24T02:32:25;4.60;99.90
4279;DHT22;2153;47.744;10.580;2022-11-24T02:34:59;4.70;99.90
4279;DHT22;2153;47.744;10.580;2022-11-24T02:37:26;4.70;99.90
4279;DHT22;2153;47.744;10.580;2022-11-24T02:39:53;4.60;99.90
4279;DHT22;2153;47.744;10.580;2022-11-24T02:42:20;4.60;99.90
4279;DHT22;2153;47.744;10.580;2022-11-24T02:44:50;4.60;99.90
4279;DHT22;2153;47.744;10.580;2022-11-24T02:47:18;4.70;99.90
4279;DHT22;2153;47.744;10.580;2022-11-24T02:49:45;4.70;99.90
4279;DHT22;2153;47.744;10.580;2022-11-24T02:52:12;4.60;99.90
4279;DHT22;2153;47.744;10.580;2022-11-24T02:54:40;4.60;99.90
4279;DHT22;2153;47.744;10.580;2022-11-24T02:57:07;4.60;99.90
4279;DHT22;2153;47.744;10.580;2022-11-24T02:59:34;4.50;99.90
4279;DHT22;2153;47.744;10.580;2022-11-24T03:02:02;4.50;99.90
4279;DHT22;2153;47.744;10.580;2022-11-24T03:04:29;4.50;99.90
4279;DHT22;2153;47.744;10.580;2022-11-24T03:06:56;4.50;99.90
4279;DHT22;2153;47.744;10.580;2022-11-24T03:09:23;4.40;99.90
4279;DHT22;2153;47.744;10.580;2022-11-24T03:11:50;4.40;99.90
4279;DHT22;2153;47.744;10.580;2022-11-24T03:14:16;4.40;99.90
4279;DHT22;2153;47.744;10.580;2022-11-24T03:16:43;4.40;99.90
4279;DHT22;2153;47.744;10.580;2022-11-24T03:19:12;4.40;99.90
4279;DHT22;2153;47.744;10.580;2022-11-24T03:21:38;4.40;99.90
4279;DHT22;2153;47.744;10.580;2022-11-24T03:24:05;4.30;99.90
4279;DHT22;2153;47.744;10.580;2022-11-24T03:26:33;4.30;99.90
4279;DHT22;2153;47.744;10.580;2022-11-24T03:28:59;4.20;99.90
4279;DHT22;2153;47.744;10.580;2022-11-24T03:31:26;4.20;99.90
4279;DHT22;2153;47.744;10.580;2022-11-24T03:33:53;4.20;99.90
4279;DHT22;2153;47.744;10.580;2022-11-24T03:36:21;4.20;99.90
4279;DHT22;2153;47.744;10.580;2022-11-24T03:38:48;4.30;99.90
4279;DHT22;2153;47.744;10.580;2022-11-24T03:41:15;4.20;99.90
4279;DHT22;2153;47.744;10.580;2022-11-24T03:43:42;4.20;99.90
4279;DHT22;2153;47.744;10.580;2022-11-24T03:46:09;4.10;99.90
4279;DHT22;2153;47.744;10.580;2022-11-24T03:48:36;4.20;99.90
4279;DHT22;2153;47.744;10.580;2022-11-24T03:51:03;4.10;99.90
4279;DHT22;2153;47.744;10.580;2022-11-24T03:53:32;4.10;99.90
4279;DHT22;2153;47.744;10.580;2022-11-24T03:56:00;4.10;99.90
4279;DHT22;2153;47.744;10.580;2022-11-24T03:58:27;4.20;99.90
4279;DHT22;2153;47.744;10.580;2022-11-24T04:00:55;4.20;99.90
4279;DHT22;2153;47.744;10.580;2022-11-24T04:03:22;4.10;99.90
4279;DHT22;2153;47.744;10.580;2022-11-24T04:05:50;4.30;99.90
4279;DHT22;2153;47.744;10.580;2022-11-24T04:08:17;4.20;99.90
4279;DHT22;2153;47.744;10.580;2022-11-24T04:10:48;4.30;99.90
4279;DHT22;2153;47.744;10.580;2022-11-24T04:13:16;4.40;99.90
4279;DHT22;2153;47.744;10.580;2022-11-24T04:15:43;4.40;99.90
4279;DHT22;2153;47.744;10.580;2022-11-24T04:18:11;4.40;99.90
4279;DHT22;2153;47.744;10.580;2022-11-24T04:20:39;4.40;99.90
4279;DHT22;2153;47.744;10.580;2022-11-24T04:23:07;4.40;99.90
4279;DHT22;2153;47.744;10.580;2022-11-24T04:25:34;4.40;99.90
4279;DHT22;2153;47.744;10.580;2022-11-24T04:28:03;4.40;99.90
4279;DHT22;2153;47.744;10.580;2022-11-24T04:30:29;4.40;99.90
4279;DHT22;2153;47.744;10.580;2022-11-24T04:32:56;4.40;99.90
4279;DHT22;2153;47.744;10.580;2022-11-24T04:35:24;4.40;99.90
4279;DHT22;2153;47.744;10.580;2022-11-24T04:37:50;4.40;99.90
4279;DHT22;2153;47.744;10.580;2022-11-24T04:40:18;4.30;99.90
4279;DHT22;2153;47.744;10.580;2022-11-24T04:42:51;4.40;99.90
4279;DHT22;2153;47.744;10.580;2022-11-24T04:45:20;4.40;99.90
4279;DHT22;2153;47.744;10.580;2022-11-24T04:47:47;4.50;99.90
4279;DHT22;2153;47.744;10.580;2022-11-24T04:50:14;4.50;99.90
4279;DHT22;2153;47.744;10.580;2022-11-24T04:52:41;4.50;99.90
4279;DHT22;2153;47.744;10.580;2022-11-24T04:55:08;4.40;99.90
4279;DHT22;2153;47.744;10.580;2022-11-24T04:57:35;4.40;99.90
4279;DHT22;2153;47.744;10.580;2022-11-24T05:00:02;4.30;99.90
4279;DHT22;2153;47.744;10.580;2022-11-24T05:02:30;4.30;99.90
4279;DHT22;2153;47.744;10.580;2022-11-24T05:04:57;4.30;99.90
4279;DHT22;2153;47.744;10.580;2022-11-24T05:07:24;4.30;99.90
4279;DHT22;2153;47.744;10.580;2022-11-24T05:09:51;4.30;99.90
4279;DHT22;2153;47.744;10.580;2022-11-24T05:12:35;4.30;99.90
4279;DHT22;2153;47.744;10.580;2022-11-24T05:15:05;4.30;99.90
4279;DHT22;2153;47.744;10.580;2022-11-24T05:17:35;4.30;99.90
4279;DHT22;2153;47.744;10.580;2022-11-24T05:20:04;4.30;99.90
4279;DHT22;2153;47.744;10.580;2022-11-24T05:22:31;4.30;99.90
4279;DHT22;2153;47.744;10.580;2022-11-24T05:24:58;4.30;99.90
4279;DHT22;2153;47.744;10.580;2022-11-24T05:27:25;4.30;99.90
4279;DHT22;2153;47.744;10.580;2022-11-24T05:29:52;4.30;99.90
4279;DHT22;2153;47.744;10.580;2022-11-24T05:32:19;4.40;99.90
4279;DHT22;2153;47.744;10.580;2022-11-24T05:34:47;4.40;99.90
4279;DHT22;2153;47.744;10.580;2022-11-24T05:37:13;4.40;99.90
4279;DHT22;2153;47.744;10.580;2022-11-24T05:39:41;4.50;99.90
4279;DHT22;2153;47.744;10.580;2022-11-24T05:42:08;4.50;99.90
4279;DHT22;2153;47.744;10.580;2022-11-24T05:44:53;4.50;99.90
4279;DHT22;2153;47.744;10.580;2022-11-24T05:47:20;4.40;99.90
4279;DHT22;2153;47.744;10.580;2022-11-24T05:49:48;4.40;99.90
4279;DHT22;2153;47.744;10.580;2022-11-24T05:52:16;4.40;99.90
4279;DHT22;2153;47.744;10.580;2022-11-24T05:54:43;4.40;99.90
4279;DHT22;2153;47.744;10.580;2022-11-24T05:57:09;4.40;99.90
4279;DHT22;2153;47.744;10.580;2022-11-24T05:59:37;4.40;99.90
4279;DHT22;2153;47.744;10.580;2022-11-24T06:02:04;4.40;99.90
4279;DHT22;2153;47.744;10.580;2022-11-24T06:04:31;4.40;99.90
4279;DHT22;2153;47.744;10.580;2022-11-24T06:06:59;4.30;99.90
4279;DHT22;2153;47.744;10.580;2022-11-24T06:09:26;4.30;99.90
4279;DHT22;2153;47.744;10.580;2022-11-24T06:11:53;4.30;99.90
4279;DHT22;2153;47.744;10.580;2022-11-24T06:14:20;4.30;99.90
4279;DHT22;2153;47.744;10.580;2022-11-24T06:16:47;4.30;99.90
4279;DHT22;2153;47.744;10.580;2022-11-24T06:19:14;4.30;99.90
4279;DHT22;2153;47.744;10.580;2022-11-24T06:21:41;4.30;99.90
4279;DHT22;2153;47.744;10.580;2022-11-24T06:24:09;4.20;99.90
4279;DHT22;2153;47.744;10.580;2022-11-24T06:26:36;4.20;99.90
4279;DHT22;2153;47.744;10.580;2022-11-24T06:29:03;4.30;99.90
4279;DHT22;2153;47.744;10.580;2022-11-24T06:31:29;4.20;99.90
4279;DHT22;2153;47.744;10.580;2022-11-24T06:33:56;4.30;99.90
4279;DHT22;2153;47.744;10.580;2022-11-24T06:36:23;4.20;99.90
4279;DHT22;2153;47.744;10.580;2022-11-24T06:38:50;4.20;99.90
4279;DHT22;2153;47.744;10.580;2022-11-24T06:41:19;4.20;99.90
4279;DHT22;2153;47.744;10.580;2022-11-24T06:43:46;4.20;99.90
4279;DHT22;2153;47.744;10.580;2022-11-24T06:46:13;4.30;99.90
4279;DHT22;2153;47.744;10.580;2022-11-24T06:48:40;4.30;99.90
4279;DHT22;2153;47.744;10.580;2022-11-24T06:51:09;4.30;99.90
4279;DHT22;2153;47.744;10.580;2022-11-24T06:53:38;4.30;99.90
4279;DHT22;2153;47.744;10.580;2022-11-24T06:56:08;4.30;99.90
4279;DHT22;2153;47.744;10.580;2022-11-24T06:58:39;4.30;99.90
4279;DHT22;2153;47.744;10.580;2022-11-24T07:01:07;4.30;99.90
4279;DHT22;2153;47.744;10.580;2022-11-24T07:03:34;4.30;99.90
4279;DHT22;2153;47.744;10.580;2022-11-24T07:06:01;4.40;99.90
4279;DHT22;2153;47.744;10.580;2022-11-24T07:08:27;4.50;99.90
4279;DHT22;2153;47.744;10.580;2022-11-24T07:10:54;4.60;99.90
4279;DHT22;2153;47.744;10.580;2022-11-24T07:13:21;4.90;99.90
4279;DHT22;2153;47.744;10.580;2022-11-24T07:15:49;5.00;99.90
4279;DHT22;2153;47.744;10.580;2022-11-24T07:18:16;5.30;99.90
4279;DHT22;2153;47.744;10.580;2022-11-24T07:20:43;5.50;99.90
4279;DHT22;2153;47.744;10.580;2022-11-24T07:23:09;5.60;99.90
4279;DHT22;2153;47.744;10.580;2022-11-24T07:25:36;5.90;99.90
4279;DHT22;2153;47.744;10.580;2022-11-24T07:28:03;6.10;99.90
4279;DHT22;2153;47.744;10.580;2022-11-24T07:30:30;6.20;99.90
4279;DHT22;2153;47.744;10.580;2022-11-24T07:32:59;6.20;99.90
4279;DHT22;2153;47.744;10.580;2022-11-24T07:35:27;6.20;99.90
4279;DHT22;2153;47.744;10.580;2022-11-24T07:37:54;6.30;99.90
4279;DHT22;2153;47.744;10.580;2022-11-24T07:40:21;6.30;99.90
4279;DHT22;2153;47.744;10.580;2022-11-24T07:42:48;6.60;99.90
4279;DHT22;2153;47.744;10.580;2022-11-24T07:45:15;6.70;99.90
4279;DHT22;2153;47.744;10.580;2022-11-24T07:47:42;6.70;99.90
4279;DHT22;2153;47.744;10.580;2022-11-24T07:50:11;6.80;99.90
4279;DHT22;2153;47.744;10.580;2022-11-24T07:52:38;6.90;99.90
4279;DHT22;2153;47.744;10.580;2022-11-24T07:55:06;7.50;99.90
4279;DHT22;2153;47.744;10.580;2022-11-24T07:57:33;8.20;99.90
4279;DHT22;2153;47.744;10.580;2022-11-24T07:59:59;8.80;99.90
4279;DHT22;2153;47.744;10.580;2022-11-24T08:02:26;9.20;99.90
4279;DHT22;2153;47.744;10.580;2022-11-24T08:04:53;9.90;99.90
4279;DHT22;2153;47.744;10.580;2022-11-24T08:07:21;10.10;99.90
4279;DHT22;2153;47.744;10.580;2022-11-24T08:09:48;10.00;99.90
4279;DHT22;2153;47.744;10.580;2022-11-24T08:12:16;10.10;99.90
4279;DHT22;2153;47.744;10.580;2022-11-24T08:14:46;9.90;99.90
4279;DHT22;2153;47.744;10.580;2022-11-24T08:17:13;9.80;99.90
4279;DHT22;2153;47.744;10.580;2022-11-24T08:19:40;9.50;99.90
4279;DHT22;2153;47.744;10.580;2022-11-24T08:22:07;9.00;99.90
4279;DHT22;2153;47.744;10.580;2022-11-24T08:24:35;8.60;99.90
4279;DHT22;2153;47.744;10.580;2022-11-24T08:27:02;8.20;99.90
4279;DHT22;2153;47.744;10.580;2022-11-24T08:29:30;8.20;99.90
4279;DHT22;2153;47.744;10.580;2022-11-24T08:31:57;8.00;99.90
4279;DHT22;2153;47.744;10.580;2022-11-24T08:34:24;7.80;99.90
4279;DHT22;2153;47.744;10.580;2022-11-24T08:36:51;7.50;99.90
4279;DHT22;2153;47.744;10.580;2022-11-24T08:39:18;7.30;99.90
4279;DHT22;2153;47.744;10.580;2022-11-24T08:41:46;7.20;99.90
4279;DHT22;2153;47.744;10.580;2022-11-24T08:44:13;7.10;99.90
4279;DHT22;2153;47.744;10.580;2022-11-24T08:46:42;7.00;99.90
4279;DHT22;2153;47.744;10.580;2022-11-24T08:49:09;7.00;99.90
4279;DHT22;2153;47.744;10.580;2022-11-24T08:51:38;7.00;99.90
4279;DHT22;2153;47.744;10.580;2022-11-24T08:54:05;7.00;99.90
4279;DHT22;2153;47.744;10.580;2022-11-24T08:56:32;7.00;99.90
4279;DHT22;2153;47.744;10.580;2022-11-24T08:59:00;7.10;99.90
4279;DHT22;2153;47.744;10.580;2022-11-24T09:01:28;7.10;99.90
4279;DHT22;2153;47.744;10.580;2022-11-24T09:03:55;7.00;99.90
4279;DHT22;2153;47.744;10.580;2022-11-24T09:06:24;7.00;99.90
4279;DHT22;2153;47.744;10.580;2022-11-24T09:08:53;6.80;99.90
4279;DHT22;2153;47.744;10.580;2022-11-24T09:11:20;6.70;99.90
4279;DHT22;2153;47.744;10.580;2022-11-24T09:13:47;6.50;99.90
4279;DHT22;2153;47.744;10.580;2022-11-24T09:16:17;6.40;99.90
4279;DHT22;2153;47.744;10.580;2022-11-24T09:18:45;6.30;99.90
4279;DHT22;2153;47.744;10.580;2022-11-24T09:21:14;6.20;99.90
4279;DHT22;2153;47.744;10.580;2022-11-24T09:23:41;6.10;99.90
4279;DHT22;2153;47.744;10.580;2022-11-24T09:26:09;6.00;99.90
4279;DHT22;2153;47.744;10.580;2022-11-24T09:28:37;5.90;99.90
4279;DHT22;2153;47.744;10.580;2022-11-24T09:31:05;5.80;99.90
4279;DHT22;2153;47.744;10.580;2022-11-24T09:33:34;5.80;99.90
4279;DHT22;2153;47.744;10.580;2022-11-24T09:36:02;5.70;99.90
4279;DHT22;2153;47.744;10.580;2022-11-24T09:38:29;5.70;99.90
4279;DHT22;2153;47.744;10.580;2022-11-24T09:41:20;5.60;99.90
4279;DHT22;2153;47.744;10.580;2022-11-24T09:43:56;5.60;99.90
4279;DHT22;2153;47.744;10.580;2022-11-24T09:46:29;5.50;99.90
4279;DHT22;2153;47.744;10.580;2022-11-24T09:49:00;5.50;99.90
4279;DHT22;2153;47.744;10.580;2022-11-24T09:51:30;5.60;99.90
4279;DHT22;2153;47.744;10.580;2022-11-24T09:54:02;5.60;99.90
4279;DHT22;2153;47.744;10.580;2022-11-24T09:56:33;5.70;99.90
4279;DHT22;2153;47.744;10.580;2022-11-24T09:59:05;5.70;99.90
4279;DHT22;2153;47.744;10.580;2022-11-24T10:01:39;5.80;99.90
4279;DHT22;2153;47.744;10.580;2022-11-24T10:04:14;5.80;99.90
4279;DHT22;2153;47.744;10.580;2022-11-24T10:06:46;5.90;99.90
4279;DHT22;2153;47.744;10.580;2022-11-24T10:09:39;6.00;99.90
4279;DHT22;2153;47.744;10.580;2022-11-24T10:12:19;6.00;99.90
4279;DHT22;2153;47.744;10.580;2022-11-24T10:14:58;5.90;99.90
4279;DHT22;2153;47.744;10.580;2022-11-24T10:17:40;6.00;99.90
4279;DHT22;2153;47.744;10.580;2022-11-24T10:20:18;6.10;99.90
4279;DHT22;2153;47.744;10.580;2022-11-24T10:22:58;6.10;99.90
4279;DHT22;2153;47.744;10.580;2022-11-24T10:25:33;6.20;99.90
4279;DHT22;2153;47.744;10.580;2022-11-24T10:28:04;6.20;99.90
4279;DHT22;2153;47.744;10.580;2022-11-24T10:30:34;6.10;99.90
4279;DHT22;2153;47.744;10.580;2022-11-24T10:33:07;6.20;99.90
4279;DHT22;2153;47.744;10.580;2022-11-24T10:35:43;6.10;99.90
4279;DHT22;2153;47.744;10.580;2022-11-24T10:38:28;6.10;99.90
4279;DHT22;2153;47.744;10.580;2022-11-24T10:40:57;6.00;99.90
4279;DHT22;2153;47.744;10.580;2022-11-24T10:43:26;5.90;99.90
4279;DHT22;2153;47.744;10.580;2022-11-24T10:45:54;5.90;99.90
4279;DHT22;2153;47.744;10.580;2022-11-24T10:48:24;5.80;99.90
4279;DHT22;2153;47.744;10.580;2022-11-24T10:51:15;5.90;99.90
4279;DHT22;2153;47.744;10.580;2022-11-24T10:53:45;5.90;99.90
4279;DHT22;2153;47.744;10.580;2022-11-24T10:56:12;6.10;99.90
4279;DHT22;2153;47.744;10.580;2022-11-24T10:58:39;6.30;99.90
4279;DHT22;2153;47.744;10.580;2022-11-24T11:01:19;6.30;99.90
4279;DHT22;2153;47.744;10.580;2022-11-24T11:03:48;6.50;99.90
4279;DHT22;2153;47.744;10.580;2022-11-24T11:06:20;7.00;99.90
4279;DHT22;2153;47.744;10.580;2022-11-24T11:08:47;7.40;99.90
4279;DHT22;2153;47.744;10.580;2022-11-24T11:11:20;7.70;99.90
4279;DHT22;2153;47.744;10.580;2022-11-24T11:13:50;7.80;99.90
4279;DHT22;2153;47.744;10.580;2022-11-24T11:16:32;8.00;99.90
4279;DHT22;2153;47.744;10.580;2022-11-24T11:19:00;8.00;99.90
4279;DHT22;2153;47.744;10.580;2022-11-24T11:21:32;7.80;99.90
4279;DHT22;2153;47.744;10.580;2022-11-24T11:24:01;7.50;99.90
4279;DHT22;2153;47.744;10.580;2022-11-24T11:26:34;7.60;99.90
4279;DHT22;2153;47.744;10.580;2022-11-24T11:29:12;7.60;99.90
4279;DHT22;2153;47.744;10.580;2022-11-24T11:31:39;7.80;99.90
4279;DHT22;2153;47.744;10.580;2022-11-24T11:34:13;7.70;99.90
4279;DHT22;2153;47.744;10.580;2022-11-24T11:36:44;7.90;99.90
4279;DHT22;2153;47.744;10.580;2022-11-24T11:39:20;7.80;99.90
4279;DHT22;2153;47.744;10.580;2022-11-24T11:41:49;7.80;99.90
4279;DHT22;2153;47.744;10.580;2022-11-24T11:44:29;8.10;99.90
4279;DHT22;2153;47.744;10.580;2022-11-24T11:46:58;8.10;99.90
4279;DHT22;2153;47.744;10.580;2022-11-24T11:49:24;7.90;99.90
4279;DHT22;2153;47.744;10.580;2022-11-24T11:52:13;7.90;99.90
4279;DHT22;2153;47.744;10.580;2022-11-24T11:55:05;7.50;99.90
4279;DHT22;2153;47.744;10.580;2022-11-24T11:57:42;7.50;99.90
4279;DHT22;2153;47.744;10.580;2022-11-24T12:00:14;7.50;99.90
4279;DHT22;2153;47.744;10.580;2022-11-24T12:05:58;7.30;99.90
4279;DHT22;2153;47.744;10.580;2022-11-24T12:08:34;7.20;99.90
4279;DHT22;2153;47.744;10.580;2022-11-24T12:11:08;7.20;99.90
4279;DHT22;2153;47.744;10.580;2022-11-24T12:13:47;7.20;99.90
4279;DHT22;2153;47.744;10.580;2022-11-24T12:16:27;7.40;99.90
4279;DHT22;2153;47.744;10.580;2022-11-24T12:19:12;7.50;99.90
4279;DHT22;2153;47.744;10.580;2022-11-24T12:21:48;7.90;99.90
4279;DHT22;2153;47.744;10.580;2022-11-24T12:24:28;8.00;99.90
4279;DHT22;2153;47.744;10.580;2022-11-24T12:27:03;8.10;99.90
4279;DHT22;2153;47.744;10.580;2022-11-24T12:29:50;8.20;99.90
4279;DHT22;2153;47.744;10.580;2022-11-24T12:32:28;8.20;99.90
4279;DHT22;2153;47.744;10.580;2022-11-24T12:35:07;8.00;99.90
4279;DHT22;2153;47.744;10.580;2022-11-24T12:37:48;8.20;99.90
4279;DHT22;2153;47.744;10.580;2022-11-24T12:40:25;8.60;99.90
4279;DHT22;2153;47.744;10.580;2022-11-24T12:43:05;8.80;99.90
4279;DHT22;2153;47.744;10.580;2022-11-24T12:45:38;8.70;99.90
4279;DHT22;2153;47.744;10.580;2022-11-24T12:48:36;8.70;99.90
4279;DHT22;2153;47.744;10.580;2022-11-24T12:51:07;8.50;99.90
4279;DHT22;2153;47.744;10.580;2022-11-24T12:53:37;8.50;99.90
4279;DHT22;2153;47.744;10.580;2022-11-24T12:56:09;8.50;99.90
4279;DHT22;2153;47.744;10.580;2022-11-24T12:58:41;8.50;99.90
4279;DHT22;2153;47.744;10.580;2022-11-24T13:01:23;8.50;99.90
4279;DHT22;2153;47.744;10.580;2022-11-24T13:04:00;8.40;99.90
4279;DHT22;2153;47.744;10.580;2022-11-24T13:06:37;8.40;99.90
4279;DHT22;2153;47.744;10.580;2022-11-24T13:09:08;8.40;99.90
4279;DHT22;2153;47.744;10.580;2022-11-24T13:11:39;8.40;99.90
4279;DHT22;2153;47.744;10.580;2022-11-24T13:14:13;8.50;99.90
4279;DHT22;2153;47.744;10.580;2022-11-24T13:16:52;8.40;99.90
4279;DHT22;2153;47.744;10.580;2022-11-24T13:19:20;8.50;99.90
4279;DHT22;2153;47.744;10.580;2022-11-24T13:21:58;8.30;99.90
4279;DHT22;2153;47.744;10.580;2022-11-24T13:24:26;8.30;99.90
4279;DHT22;2153;47.744;10.580;2022-11-24T13:33:33;7.90;99.90
4279;DHT22;2153;47.744;10.580;2022-11-24T13:36:28;8.00;99.90
4279;DHT22;2153;47.744;10.580;2022-11-24T13:38:56;8.10;99.90
4279;DHT22;2153;47.744;10.580;2022-11-24T13:44:50;8.00;99.90
4279;DHT22;2153;47.744;10.580;2022-11-24T13:47:39;8.00;99.90
4279;DHT22;2153;47.744;10.580;2022-11-24T13:50:12;8.00;99.90
4279;DHT22;2153;47.744;10.580;2022-11-24T13:52:45;7.90;99.90
4279;DHT22;2153;47.744;10.580;2022-11-24T13:55:22;7.70;99.90
4279;DHT22;2153;47.744;10.580;2022-11-24T13:57:52;7.30;99.90
4279;DHT22;2153;47.744;10.580;2022-11-24T14:00:22;7.10;99.90
4279;DHT22;2153;47.744;10.580;2022-11-24T14:02:51;7.00;99.90
4279;DHT22;2153;47.744;10.580;2022-11-24T14:05:22;7.10;99.90
4279;DHT22;2153;47.744;10.580;2022-11-24T14:07:50;7.20;99.90
4279;DHT22;2153;47.744;10.580;2022-11-24T14:10:21;7.10;99.90
4279;DHT22;2153;47.744;10.580;2022-11-24T14:13:15;6.90;99.90
4279;DHT22;2153;47.744;10.580;2022-11-24T14:15:42;6.60;99.90
4279;DHT22;2153;47.744;10.580;2022-11-24T14:18:15;6.50;99.90
4279;DHT22;2153;47.744;10.580;2022-11-24T14:20:43;6.30;99.90
4279;DHT22;2153;47.744;10.580;2022-11-24T14:23:10;6.20;99.90
4279;DHT22;2153;47.744;10.580;2022-11-24T14:25:38;6.20;99.90
4279;DHT22;2153;47.744;10.580;2022-11-24T14:28:13;6.20;99.90
4279;DHT22;2153;47.744;10.580;2022-11-24T14:30:45;6.10;99.90
4279;DHT22;2153;47.744;10.580;2022-11-24T14:33:11;6.00;99.90
4279;DHT22;2153;47.744;10.580;2022-11-24T14:35:44;5.90;99.90
4279;DHT22;2153;47.744;10.580;2022-11-24T14:38:12;5.80;99.90
4279;DHT22;2153;47.744;10.580;2022-11-24T14:40:40;5.70;99.90
4279;DHT22;2153;47.744;10.580;2022-11-24T14:43:19;5.70;99.90
4279;DHT22;2153;47.744;10.580;2022-11-24T14:45:52;5.60;99.90
4279;DHT22;2153;47.744;10.580;2022-11-24T14:48:23;5.60;99.90
4279;DHT22;2153;47.744;10.580;2022-11-24T14:50:53;5.40;99.90
4279;DHT22;2153;47.744;10.580;2022-11-24T14:53:29;5.40;99.90
4279;DHT22;2153;47.744;10.580;2022-11-24T14:56:07;5.40;99.90
4279;DHT22;2153;47.744;10.580;2022-11-24T14:58:34;5.40;99.90
4279;DHT22;2153;47.744;10.580;2022-11-24T15:01:09;5.40;99.90
4279;DHT22;2153;47.744;10.580;2022-11-24T15:03:37;5.50;99.90
4279;DHT22;2153;47.744;10.580;2022-11-24T15:06:15;5.50;99.90
4279;DHT22;2153;47.744;10.580;2022-11-24T15:08:45;5.60;99.90
4279;DHT22;2153;47.744;10.580;2022-11-24T15:11:12;5.60;99.90
4279;DHT22;2153;47.744;10.580;2022-11-24T15:13:50;5.60;99.90
4279;DHT22;2153;47.744;10.580;2022-11-24T15:16:19;5.60;99.90
4279;DHT22;2153;47.744;10.580;2022-11-24T15:18:48;5.70;99.90
4279;DHT22;2153;47.744;10.580;2022-11-24T15:21:31;5.70;99.90
4279;DHT22;2153;47.744;10.580;2022-11-24T15:24:05;5.70;99.90
4279;DHT22;2153;47.744;10.580;2022-11-24T15:26:32;5.70;99.90
4279;DHT22;2153;47.744;10.580;2022-11-24T15:28:59;5.70;99.90
4279;DHT22;2153;47.744;10.580;2022-11-24T15:31:26;5.70;99.90
4279;DHT22;2153;47.744;10.580;2022-11-24T15:33:52;5.70;99.90
4279;DHT22;2153;47.744;10.580;2022-11-24T15:36:19;5.60;99.90
4279;DHT22;2153;47.744;10.580;2022-11-24T15:38:47;5.60;99.90
4279;DHT22;2153;47.744;10.580;2022-11-24T15:41:18;5.50;99.90
4279;DHT22;2153;47.744;10.580;2022-11-24T15:43:45;5.50;99.90
4279;DHT22;2153;47.744;10.580;2022-11-24T15:46:12;5.40;99.90
4279;DHT22;2153;47.744;10.580;2022-11-24T15:48:39;5.40;99.90
4279;DHT22;2153;47.744;10.580;2022-11-24T15:51:09;5.30;99.90
4279;DHT22;2153;47.744;10.580;2022-11-24T15:53:39;5.20;99.90
4279;DHT22;2153;47.744;10.580;2022-11-24T15:56:14;5.20;99.90
4279;DHT22;2153;47.744;10.580;2022-11-24T15:58:44;5.20;99.90
4279;DHT22;2153;47.744;10.580;2022-11-24T16:01:11;5.20;99.90
4279;DHT22;2153;47.744;10.580;2022-11-24T16:03:38;5.20;99.90
4279;DHT22;2153;47.744;10.580;2022-11-24T16:06:07;5.10;99.90
4279;DHT22;2153;47.744;10.580;2022-11-24T16:08:37;5.00;99.90
4279;DHT22;2153;47.744;10.580;2022-11-24T16:11:03;5.00;99.90
4279;DHT22;2153;47.744;10.580;2022-11-24T16:13:32;4.90;99.90
4279;DHT22;2153;47.744;10.580;2022-11-24T16:15:58;4.90;99.90
4279;DHT22;2153;47.744;10.580;2022-11-24T16:18:25;4.80;99.90
4279;DHT22;2153;47.744;10.580;2022-11-24T16:20:52;4.80;99.90
4279;DHT22;2153;47.744;10.580;2022-11-24T16:23:19;4.70;99.90
4279;DHT22;2153;47.744;10.580;2022-11-24T16:25:46;4.60;99.90
4279;DHT22;2153;47.744;10.580;2022-11-24T16:28:12;4.50;99.90
4279;DHT22;2153;47.744;10.580;2022-11-24T16:30:47;4.40;99.90
4279;DHT22;2153;47.744;10.580;2022-11-24T16:33:14;4.30;99.90